sensor_id;sensor_type;location;lat;lon;timestamp;pressure;altitude;pressure_sealevel;temperature;humidity
9717;BME280;4897;43.570;27.832;2023-02-28T00:01:47;99993.22;;;5.57;100.00
9717;BME280;4897;43.570;27.832;2023-02-28T00:04:14;100012.19;;;5.49;100.00
9717;BME280;4897;43.570;27.832;2023-02-28T00:06:41;100030.47;;;5.55;100.00
9717;BME280;4897;43.570;27.832;2023-02-28T00:09:08;100030.47;;;5.55;100.00
9717;BME280;4897;43.570;27.832;2023-02-28T00:11:36;100013.31;;;5.62;100.00
9717;BME280;4897;43.570;27.832;2023-02-28T00:14:03;99997.84;;;5.53;100.00
9717;BME280;4897;43.570;27.832;2023-02-28T00:16:30;100000.34;;;5.56;100.00
9717;BME280;4897;43.570;27.832;2023-02-28T00:18:57;99988.16;;;5.69;100.00
9717;BME280;4897;43.570;27.832;2023-02-28T00:21:24;99948.88;;;5.43;100.00
9717;BME280;4897;43.570;27.832;2023-02-28T00:23:51;99977.72;;;5.66;100.00
9717;BME280;4897;43.570;27.832;2023-02-28T00:26:18;99987.16;;;5.72;100.00
9717;BME280;4897;43.570;27.832;2023-02-28T00:28:46;99984.88;;;5.82;100.00
9717;BME280;4897;43.570;27.832;2023-02-28T00:31:13;99998.78;;;5.69;100.00
9717;BME280;4897;43.570;27.832;2023-02-28T00:33:40;99998.78;;;5.69;100.00
9717;BME280;4897;43.570;27.832;2023-02-28T00:36:12;100032.19;;;5.74;100.00
9717;BME280;4897;43.570;27.832;2023-02-28T00:38:39;100029.91;;;5.66;100.00
9717;BME280;4897;43.570;27.832;2023-02-28T00:41:07;100037.72;;;5.69;100.00
9717;BME280;4897;43.570;27.832;2023-02-28T00:43:36;100045.91;;;5.47;100.00
9717;BME280;4897;43.570;27.832;2023-02-28T00:46:06;100047.47;;;5.51;100.00
9717;BME280;4897;43.570;27.832;2023-02-28T00:48:36;100022.50;;;5.55;100.00
9717;BME280;4897;43.570;27.832;2023-02-28T00:51:04;100030.47;;;5.73;100.00
9717;BME280;4897;43.570;27.832;2023-02-28T00:53:31;100035.16;;;5.85;100.00
9717;BME280;4897;43.570;27.832;2023-02-28T00:55:59;100041.94;;;5.73;100.00
9717;BME280;4897;43.570;27.832;2023-02-28T00:58:28;100032.47;;;5.67;100.00
9717;BME280;4897;43.570;27.832;2023-02-28T01:00:55;100052.88;;;5.67;100.00
9717;BME280;4897;43.570;27.832;2023-02-28T01:03:24;100061.75;;;5.66;100.00
9717;BME280;4897;43.570;27.832;2023-02-28T01:05:51;100045.94;;;5.64;100.00
9717;BME280;4897;43.570;27.832;2023-02-28T01:08:18;100036.22;;;5.63;100.00
9717;BME280;4897;43.570;27.832;2023-02-28T01:10:46;100046.78;;;5.65;100.00
9717;BME280;4897;43.570;27.832;2023-02-28T01:13:13;100050.59;;;5.59;100.00
9717;BME280;4897;43.570;27.832;2023-02-28T01:15:49;100000.19;;;5.42;100.00
9717;BME280;4897;43.570;27.832;2023-02-28T01:18:16;100021.59;;;5.56;100.00
9717;BME280;4897;43.570;27.832;2023-02-28T01:20:45;100011.75;;;5.58;100.00
9717;BME280;4897;43.570;27.832;2023-02-28T01:23:12;100038.81;;;5.65;100.00
9717;BME280;4897;43.570;27.832;2023-02-28T01:25:39;99917.41;;;4.84;100.00
9717;BME280;4897;43.570;27.832;2023-02-28T01:28:06;100028.28;;;5.63;100.00
9717;BME280;4897;43.570;27.832;2023-02-28T01:30:33;100032.47;;;5.67;100.00
9717;BME280;4897;43.570;27.832;2023-02-28T01:33:00;100027.34;;;5.64;100.00
9717;BME280;4897;43.570;27.832;2023-02-28T01:35:27;100025.47;;;5.66;100.00
9717;BME280;4897;43.570;27.832;2023-02-28T01:37:55;100017.59;;;5.65;100.00
9717;BME280;4897;43.570;27.832;2023-02-28T01:40:22;100025.16;;;5.73;100.00
9717;BME280;4897;43.570;27.832;2023-02-28T01:42:49;99999.72;;;5.51;100.00
9717;BME280;4897;43.570;27.832;2023-02-28T01:45:22;100041.00;;;5.74;100.00
9717;BME280;4897;43.570;27.832;2023-02-28T01:47:54;100014.31;;;5.60;100.00
9717;BME280;4897;43.570;27.832;2023-02-28T01:50:25;100018.28;;;5.68;100.00
9717;BME280;4897;43.570;27.832;2023-02-28T01:52:57;100029.53;;;5.74;100.00
9717;BME280;4897;43.570;27.832;2023-02-28T01:55:26;100043.41;;;5.61;100.00
9717;BME280;4897;43.570;27.832;2023-02-28T01:57:56;100031.09;;;5.60;100.00
9717;BME280;4897;43.570;27.832;2023-02-28T02:00:26;100035.63;;;5.76;100.00
9717;BME280;4897;43.570;27.832;2023-02-28T02:02:55;100026.88;;;5.74;100.00
9717;BME280;4897;43.570;27.832;2023-02-28T02:05:24;100021.72;;;5.71;100.00
9717;BME280;4897;43.570;27.832;2023-02-28T02:07:54;100029.03;;;5.65;100.00
9717;BME280;4897;43.570;27.832;2023-02-28T02:10:27;99893.09;;;4.76;100.00
9717;BME280;4897;43.570;27.832;2023-02-28T02:13:24;100022.97;;;5.63;100.00
9717;BME280;4897;43.570;27.832;2023-02-28T02:16:01;100010.78;;;5.59;100.00
9717;BME280;4897;43.570;27.832;2023-02-28T02:18:34;100028.72;;;5.72;100.00
9717;BME280;4897;43.570;27.832;2023-02-28T02:21:42;100048.25;;;5.71;100.00
9717;BME280;4897;43.570;27.832;2023-02-28T02:24:33;100047.31;;;5.72;100.00
9717;BME280;4897;43.570;27.832;2023-02-28T02:27:20;100054.13;;;5.77;100.00
9717;BME280;4897;43.570;27.832;2023-02-28T02:30:18;100056.53;;;5.82;100.00
9717;BME280;4897;43.570;27.832;2023-02-28T02:33:24;100079.16;;;5.72;100.00
9717;BME280;4897;43.570;27.832;2023-02-28T02:36:02;100075.88;;;5.49;100.00
9717;BME280;4897;43.570;27.832;2023-02-28T02:38:36;100081.28;;;5.65;100.00
9717;BME280;4897;43.570;27.832;2023-02-28T02:41:12;100073.84;;;5.72;100.00
9717;BME280;4897;43.570;27.832;2023-02-28T02:43:46;100072.53;;;5.63;100.00
9717;BME280;4897;43.570;27.832;2023-02-28T02:46:18;100065.50;;;5.62;100.00
9717;BME280;4897;43.570;27.832;2023-02-28T02:48:47;100048.81;;;5.60;100.00
9717;BME280;4897;43.570;27.832;2023-02-28T02:51:17;100045.69;;;5.52;100.00
9717;BME280;4897;43.570;27.832;2023-02-28T02:53:47;100074.72;;;5.72;100.00
9717;BME280;4897;43.570;27.832;2023-02-28T02:56:18;100072.13;;;5.71;100.00
9717;BME280;4897;43.570;27.832;2023-02-28T02:58:48;100106.31;;;5.77;100.00
9717;BME280;4897;43.570;27.832;2023-02-28T03:01:19;100107.41;;;5.73;100.00
9717;BME280;4897;43.570;27.832;2023-02-28T03:03:55;100097.28;;;5.81;100.00
9717;BME280;4897;43.570;27.832;2023-02-28T03:06:23;100098.69;;;5.71;100.00
9717;BME280;4897;43.570;27.832;2023-02-28T03:08:50;100094.28;;;5.69;100.00
9717;BME280;4897;43.570;27.832;2023-02-28T03:11:17;100068.63;;;5.70;100.00
9717;BME280;4897;43.570;27.832;2023-02-28T03:13:55;100058.72;;;5.56;100.00
9717;BME280;4897;43.570;27.832;2023-02-28T03:16:50;100079.31;;;5.68;100.00
9717;BME280;4897;43.570;27.832;2023-02-28T03:19:44;100087.09;;;5.72;100.00
9717;BME280;4897;43.570;27.832;2023-02-28T03:22:34;100072.69;;;5.60;100.00
9717;BME280;4897;43.570;27.832;2023-02-28T03:25:08;100090.84;;;5.67;100.00
9717;BME280;4897;43.570;27.832;2023-02-28T03:27:41;100086.91;;;5.59;100.00
9717;BME280;4897;43.570;27.832;2023-02-28T03:30:15;100082.44;;;5.59;100.00
9717;BME280;4897;43.570;27.832;2023-02-28T03:32:54;99985.69;;;5.15;100.00
9717;BME280;4897;43.570;27.832;2023-02-28T03:35:26;100086.94;;;5.57;100.00
9717;BME280;4897;43.570;27.832;2023-02-28T03:37:58;100102.16;;;5.54;100.00
9717;BME280;4897;43.570;27.832;2023-02-28T03:40:30;100075.56;;;5.55;100.00
9717;BME280;4897;43.570;27.832;2023-02-28T03:43:04;100071.19;;;5.54;100.00
9717;BME280;4897;43.570;27.832;2023-02-28T03:45:37;100066.81;;;5.53;100.00
9717;BME280;4897;43.570;27.832;2023-02-28T03:48:09;100089.94;;;5.68;100.00
9717;BME280;4897;43.570;27.832;2023-02-28T03:50:41;100085.00;;;5.78;100.00
9717;BME280;4897;43.570;27.832;2023-02-28T03:53:12;100084.31;;;5.75;100.00
9717;BME280;4897;43.570;27.832;2023-02-28T03:55:43;100088.19;;;5.67;100.00
9717;BME280;4897;43.570;27.832;2023-02-28T03:58:16;100105.91;;;5.86;100.00
9717;BME280;4897;43.570;27.832;2023-02-28T04:00:49;100103.72;;;5.94;100.00
9717;BME280;4897;43.570;27.832;2023-02-28T04:03:17;100096.41;;;5.80;100.00
9717;BME280;4897;43.570;27.832;2023-02-28T04:05:48;100089.97;;;5.86;100.00
9717;BME280;4897;43.570;27.832;2023-02-28T04:08:18;100079.47;;;5.83;100.00
9717;BME280;4897;43.570;27.832;2023-02-28T04:10:51;100072.38;;;5.83;100.00
9717;BME280;4897;43.570;27.832;2023-02-28T04:13:19;100083.56;;;5.90;100.00
9717;BME280;4897;43.570;27.832;2023-02-28T04:15:46;100074.06;;;5.86;100.00
9717;BME280;4897;43.570;27.832;2023-02-28T04:18:13;100090.34;;;5.95;100.00
9717;BME280;4897;43.570;27.832;2023-02-28T04:20:40;100072.78;;;5.93;100.00
9717;BME280;4897;43.570;27.832;2023-02-28T04:23:07;100114.03;;;6.00;100.00
9717;BME280;4897;43.570;27.832;2023-02-28T04:25:35;100126.34;;;6.01;100.00
9717;BME280;4897;43.570;27.832;2023-02-28T04:28:02;100127.06;;;6.04;100.00
9717;BME280;4897;43.570;27.832;2023-02-28T04:30:29;100123.31;;;6.08;100.00
9717;BME280;4897;43.570;27.832;2023-02-28T04:32:58;100069.09;;;5.61;100.00
9717;BME280;4897;43.570;27.832;2023-02-28T04:35:24;100134.63;;;5.95;100.00
9717;BME280;4897;43.570;27.832;2023-02-28T04:37:51;100117.78;;;5.96;100.00
9717;BME280;4897;43.570;27.832;2023-02-28T04:40:18;100113.69;;;6.06;100.00
9717;BME280;4897;43.570;27.832;2023-02-28T04:42:46;100106.38;;;6.11;100.00
9717;BME280;4897;43.570;27.832;2023-02-28T04:45:13;100101.91;;;6.11;100.00
9717;BME280;4897;43.570;27.832;2023-02-28T04:47:40;100118.59;;;6.13;100.00
9717;BME280;4897;43.570;27.832;2023-02-28T04:50:08;100104.19;;;6.19;100.00
9717;BME280;4897;43.570;27.832;2023-02-28T04:52:35;100029.03;;;5.65;100.00
9717;BME280;4897;43.570;27.832;2023-02-28T04:55:02;100090.03;;;6.01;100.00
9717;BME280;4897;43.570;27.832;2023-02-28T04:57:29;100107.06;;;6.14;100.00
9717;BME280;4897;43.570;27.832;2023-02-28T04:59:58;100108.63;;;6.18;100.00
9717;BME280;4897;43.570;27.832;2023-02-28T05:02:24;100124.00;;;6.12;100.00
9717;BME280;4897;43.570;27.832;2023-02-28T05:04:51;100107.16;;;5.96;100.00
9717;BME280;4897;43.570;27.832;2023-02-28T05:07:18;100039.66;;;5.65;100.00
9717;BME280;4897;43.570;27.832;2023-02-28T05:09:45;100116.28;;;6.07;100.00
9717;BME280;4897;43.570;27.832;2023-02-28T05:12:12;100119.72;;;6.09;100.00
9717;BME280;4897;43.570;27.832;2023-02-28T05:14:39;100119.00;;;6.06;100.00
9717;BME280;4897;43.570;27.832;2023-02-28T05:17:08;100121.22;;;5.98;100.00
9717;BME280;4897;43.570;27.832;2023-02-28T05:19:35;100128.63;;;6.08;100.00
9717;BME280;4897;43.570;27.832;2023-02-28T05:22:02;100122.44;;;6.08;100.00
9717;BME280;4897;43.570;27.832;2023-02-28T05:24:29;100133.53;;;5.99;100.00
9717;BME280;4897;43.570;27.832;2023-02-28T05:26:55;100143.00;;;6.04;100.00
9717;BME280;4897;43.570;27.832;2023-02-28T05:29:23;100147.13;;;6.10;100.00
9717;BME280;4897;43.570;27.832;2023-02-28T05:31:50;100155.09;;;6.10;100.00
9717;BME280;4897;43.570;27.832;2023-02-28T05:34:18;100161.28;;;6.10;100.00
9717;BME280;4897;43.570;27.832;2023-02-28T05:36:45;100159.47;;;5.94;100.00
9717;BME280;4897;43.570;27.832;2023-02-28T05:39:15;100122.34;;;5.75;100.00
9717;BME280;4897;43.570;27.832;2023-02-28T05:41:42;100155.84;;;5.95;100.00
9717;BME280;4897;43.570;27.832;2023-02-28T05:44:10;100165.88;;;5.90;100.00
9717;BME280;4897;43.570;27.832;2023-02-28T05:46:37;100178.84;;;6.13;100.00
9717;BME280;4897;43.570;27.832;2023-02-28T05:49:04;100172.13;;;6.06;100.00
9717;BME280;4897;43.570;27.832;2023-02-28T05:51:32;100166.81;;;6.06;100.00
9717;BME280;4897;43.570;27.832;2023-02-28T05:54:01;100152.09;;;5.82;100.00
9717;BME280;4897;43.570;27.832;2023-02-28T05:56:28;100172.44;;;5.81;100.00
9717;BME280;4897;43.570;27.832;2023-02-28T05:58:55;100164.31;;;5.86;100.00
9717;BME280;4897;43.570;27.832;2023-02-28T06:01:31;100169.44;;;5.89;100.00
9717;BME280;4897;43.570;27.832;2023-02-28T06:03:59;100166.16;;;5.84;100.00
9717;BME280;4897;43.570;27.832;2023-02-28T06:06:26;100177.25;;;5.92;100.00
9717;BME280;4897;43.570;27.832;2023-02-28T06:08:54;100160.97;;;5.81;100.00
9717;BME280;4897;43.570;27.832;2023-02-28T06:11:21;100166.78;;;5.89;100.00
9717;BME280;4897;43.570;27.832;2023-02-28T06:13:53;100189.66;;;5.91;100.00
9717;BME280;4897;43.570;27.832;2023-02-28T06:16:20;100184.66;;;5.85;100.00
9717;BME280;4897;43.570;27.832;2023-02-28T06:18:47;100188.22;;;6.03;100.00
9717;BME280;4897;43.570;27.832;2023-02-28T06:21:14;100188.03;;;6.06;100.00
9717;BME280;4897;43.570;27.832;2023-02-28T06:23:41;100178.75;;;6.14;100.00
9717;BME280;4897;43.570;27.832;2023-02-28T06:26:10;100167.66;;;6.06;100.00
9717;BME280;4897;43.570;27.832;2023-02-28T06:28:37;100170.88;;;6.13;100.00
9717;BME280;4897;43.570;27.832;2023-02-28T06:31:08;100178.22;;;6.25;100.00
9717;BME280;4897;43.570;27.832;2023-02-28T06:33:36;100182.44;;;6.29;100.00
9717;BME280;4897;43.570;27.832;2023-02-28T06:36:04;100191.31;;;6.45;100.00
9717;BME280;4897;43.570;27.832;2023-02-28T06:38:34;100192.28;;;6.27;100.00
9717;BME280;4897;43.570;27.832;2023-02-28T06:41:02;100182.44;;;6.12;100.00
9717;BME280;4897;43.570;27.832;2023-02-28T06:43:33;100192.03;;;6.14;100.00
9717;BME280;4897;43.570;27.832;2023-02-28T06:46:01;100192.09;;;5.96;100.00
9717;BME280;4897;43.570;27.832;2023-02-28T06:48:28;100180.69;;;5.94;100.00
9717;BME280;4897;43.570;27.832;2023-02-28T06:51:01;100201.78;;;5.97;100.00
9717;BME280;4897;43.570;27.832;2023-02-28T06:53:28;100196.41;;;5.80;100.00
9717;BME280;4897;43.570;27.832;2023-02-28T06:55:55;100199.00;;;5.81;100.00
9717;BME280;4897;43.570;27.832;2023-02-28T06:58:22;100196.84;;;5.89;100.00
9717;BME280;4897;43.570;27.832;2023-02-28T07:00:52;100191.13;;;5.80;100.00
9717;BME280;4897;43.570;27.832;2023-02-28T07:03:19;100184.53;;;5.88;100.00
9717;BME280;4897;43.570;27.832;2023-02-28T07:05:45;100187.66;;;5.96;100.00
9717;BME280;4897;43.570;27.832;2023-02-28T07:08:15;100174.84;;;6.04;100.00
9717;BME280;4897;43.570;27.832;2023-02-28T07:10:44;100183.91;;;6.00;100.00
9717;BME280;4897;43.570;27.832;2023-02-28T07:13:11;100187.13;;;6.07;100.00
9717;BME280;4897;43.570;27.832;2023-02-28T07:15:38;100187.59;;;6.15;100.00
9717;BME280;4897;43.570;27.832;2023-02-28T07:18:06;100188.84;;;6.25;100.00
9717;BME280;4897;43.570;27.832;2023-02-28T07:20:33;100175.72;;;6.05;100.00
9717;BME280;4897;43.570;27.832;2023-02-28T07:23:00;100185.94;;;6.12;100.00
9717;BME280;4897;43.570;27.832;2023-02-28T07:25:28;100183.13;;;6.15;100.00
9717;BME280;4897;43.570;27.832;2023-02-28T07:27:56;100208.84;;;6.32;100.00
9717;BME280;4897;43.570;27.832;2023-02-28T07:30:27;100189.63;;;6.27;100.00
9717;BME280;4897;43.570;27.832;2023-02-28T07:32:54;100192.41;;;6.24;100.00
9717;BME280;4897;43.570;27.832;2023-02-28T07:35:23;100199.16;;;6.31;100.00
9717;BME280;4897;43.570;27.832;2023-02-28T07:37:52;100186.28;;;6.23;100.00
9717;BME280;4897;43.570;27.832;2023-02-28T07:40:19;100195.41;;;6.35;100.00
9717;BME280;4897;43.570;27.832;2023-02-28T07:42:50;100190.09;;;6.35;100.00
9717;BME280;4897;43.570;27.832;2023-02-28T07:45:18;100199.47;;;6.25;100.00
9717;BME280;4897;43.570;27.832;2023-02-28T07:47:45;100200.78;;;6.33;100.00
9717;BME280;4897;43.570;27.832;2023-02-28T07:50:14;100188.81;;;6.08;100.00
9717;BME280;4897;43.570;27.832;2023-02-28T07:52:44;100189.47;;;6.30;100.00
9717;BME280;4897;43.570;27.832;2023-02-28T07:55:11;100206.66;;;6.40;100.00
9717;BME280;4897;43.570;27.832;2023-02-28T07:57:39;100201.63;;;6.51;100.00
9717;BME280;4897;43.570;27.832;2023-02-28T08:00:08;100197.72;;;6.58;100.00
9717;BME280;4897;43.570;27.832;2023-02-28T08:02:36;100181.94;;;6.55;100.00
9717;BME280;4897;43.570;27.832;2023-02-28T08:05:04;100191.72;;;6.55;100.00
9717;BME280;4897;43.570;27.832;2023-02-28T08:07:31;100190.84;;;6.54;100.00
9717;BME280;4897;43.570;27.832;2023-02-28T08:10:00;100174.59;;;6.26;100.00
9717;BME280;4897;43.570;27.832;2023-02-28T08:12:29;100182.03;;;6.36;100.00
9717;BME280;4897;43.570;27.832;2023-02-28T08:14:58;100169.94;;;6.48;100.00
9717;BME280;4897;43.570;27.832;2023-02-28T08:17:24;100187.53;;;6.83;100.00
9717;BME280;4897;43.570;27.832;2023-02-28T08:19:51;100169.53;;;6.88;100.00
9717;BME280;4897;43.570;27.832;2023-02-28T08:22:18;100190.16;;;7.00;100.00
9717;BME280;4897;43.570;27.832;2023-02-28T08:24:45;100093.34;;;6.39;100.00
9717;BME280;4897;43.570;27.832;2023-02-28T08:27:13;100191.56;;;7.23;100.00
9717;BME280;4897;43.570;27.832;2023-02-28T08:29:40;100194.56;;;7.17;100.00
9717;BME280;4897;43.570;27.832;2023-02-28T08:32:07;100207.81;;;7.01;100.00
9717;BME280;4897;43.570;27.832;2023-02-28T08:34:34;100148.47;;;6.68;100.00
9717;BME280;4897;43.570;27.832;2023-02-28T08:37:01;100218.69;;;7.30;100.00
9717;BME280;4897;43.570;27.832;2023-02-28T08:39:28;100192.09;;;7.61;100.00
9717;BME280;4897;43.570;27.832;2023-02-28T08:41:55;100178.66;;;7.93;100.00
9717;BME280;4897;43.570;27.832;2023-02-28T08:44:23;100178.19;;;8.46;100.00
9717;BME280;4897;43.570;27.832;2023-02-28T08:46:50;100174.56;;;8.47;100.00
9717;BME280;4897;43.570;27.832;2023-02-28T08:49:17;100158.84;;;8.43;100.00
9717;BME280;4897;43.570;27.832;2023-02-28T08:51:44;100174.13;;;8.25;100.00
9717;BME280;4897;43.570;27.832;2023-02-28T08:54:11;100183.22;;;8.21;100.00
9717;BME280;4897;43.570;27.832;2023-02-28T08:56:40;100182.78;;;7.83;100.00
9717;BME280;4897;43.570;27.832;2023-02-28T08:59:09;100186.97;;;8.03;100.00
9717;BME280;4897;43.570;27.832;2023-02-28T09:01:37;100179.19;;;8.30;100.00
9717;BME280;4897;43.570;27.832;2023-02-28T09:04:04;100184.44;;;8.31;100.00
9717;BME280;4897;43.570;27.832;2023-02-28T09:06:34;100198.91;;;8.41;100.00
9717;BME280;4897;43.570;27.832;2023-02-28T09:09:01;100186.16;;;8.32;100.00
9717;BME280;4897;43.570;27.832;2023-02-28T09:11:29;100218.19;;;8.46;100.00
9717;BME280;4897;43.570;27.832;2023-02-28T09:13:57;100213.84;;;8.59;100.00
9717;BME280;4897;43.570;27.832;2023-02-28T09:16:25;100212.47;;;8.52;100.00
9717;BME280;4897;43.570;27.832;2023-02-28T09:18:54;100198.56;;;8.47;100.00
9717;BME280;4897;43.570;27.832;2023-02-28T09:21:21;100207.50;;;8.46;100.00
9717;BME280;4897;43.570;27.832;2023-02-28T09:23:49;100189.41;;;8.37;100.00
9717;BME280;4897;43.570;27.832;2023-02-28T09:26:18;100186.66;;;8.23;100.00
9717;BME280;4897;43.570;27.832;2023-02-28T09:28:46;100200.09;;;8.22;100.00
9717;BME280;4897;43.570;27.832;2023-02-28T09:31:14;100198.19;;;8.24;100.00
9717;BME280;4897;43.570;27.832;2023-02-28T09:33:42;100176.53;;;8.14;100.00
9717;BME280;4897;43.570;27.832;2023-02-28T09:36:11;100194.06;;;8.34;100.00
9717;BME280;4897;43.570;27.832;2023-02-28T09:38:38;100178.50;;;8.26;100.00
9717;BME280;4897;43.570;27.832;2023-02-28T09:41:12;100178.44;;;8.12;100.00
9717;BME280;4897;43.570;27.832;2023-02-28T09:43:43;100183.09;;;7.93;100.00
9717;BME280;4897;43.570;27.832;2023-02-28T09:46:23;100188.78;;;7.87;100.00
9717;BME280;4897;43.570;27.832;2023-02-28T09:48:53;100192.72;;;8.11;100.00
9717;BME280;4897;43.570;27.832;2023-02-28T09:51:34;100179.47;;;8.25;100.00
9717;BME280;4897;43.570;27.832;2023-02-28T09:54:04;100180.66;;;8.49;100.00
9717;BME280;4897;43.570;27.832;2023-02-28T09:56:36;100098.72;;;8.09;100.00
9717;BME280;4897;43.570;27.832;2023-02-28T09:59:07;100155.72;;;8.36;100.00
9717;BME280;4897;43.570;27.832;2023-02-28T10:01:44;100171.72;;;8.36;100.00
9717;BME280;4897;43.570;27.832;2023-02-28T10:04:19;100204.53;;;8.21;100.00
9717;BME280;4897;43.570;27.832;2023-02-28T10:06:55;100189.28;;;8.09;100.00
9717;BME280;4897;43.570;27.832;2023-02-28T10:09:26;100196.91;;;8.15;100.00
9717;BME280;4897;43.570;27.832;2023-02-28T10:11:57;100198.63;;;8.16;100.00
9717;BME280;4897;43.570;27.832;2023-02-28T10:15:01;100193.88;;;8.21;100.00
9717;BME280;4897;43.570;27.832;2023-02-28T10:17:35;100206.75;;;8.44;100.00
9717;BME280;4897;43.570;27.832;2023-02-28T10:20:06;100218.38;;;8.57;100.00
9717;BME280;4897;43.570;27.832;2023-02-28T10:22:48;100172.66;;;8.49;100.00
9717;BME280;4897;43.570;27.832;2023-02-28T10:25:19;100193.84;;;8.66;100.00
9717;BME280;4897;43.570;27.832;2023-02-28T10:27:47;100194.09;;;8.62;100.00
9717;BME280;4897;43.570;27.832;2023-02-28T10:30:14;100190.41;;;8.64;100.00
9717;BME280;4897;43.570;27.832;2023-02-28T10:32:45;100195.50;;;8.53;100.00
9717;BME280;4897;43.570;27.832;2023-02-28T10:35:16;100195.84;;;8.33;100.00
9717;BME280;4897;43.570;27.832;2023-02-28T10:37:47;100199.47;;;8.32;100.00
9717;BME280;4897;43.570;27.832;2023-02-28T10:40:28;100187.88;;;8.33;100.00
9717;BME280;4897;43.570;27.832;2023-02-28T10:42:57;100209.81;;;8.52;100.00
9717;BME280;4897;43.570;27.832;2023-02-28T10:45:25;100196.28;;;8.55;100.00
9717;BME280;4897;43.570;27.832;2023-02-28T10:47:57;100189.03;;;8.57;100.00
9717;BME280;4897;43.570;27.832;2023-02-28T10:50:35;100186.50;;;8.26;100.00
9717;BME280;4897;43.570;27.832;2023-02-28T10:53:35;100180.06;;;8.30;100.00
9717;BME280;4897;43.570;27.832;2023-02-28T10:56:05;100182.16;;;8.39;100.00
9717;BME280;4897;43.570;27.832;2023-02-28T10:58:46;100176.59;;;8.28;100.00
9717;BME280;4897;43.570;27.832;2023-02-28T11:01:16;100168.75;;;8.41;100.00
9717;BME280;4897;43.570;27.832;2023-02-28T11:03:43;100158.94;;;8.41;100.00
9717;BME280;4897;43.570;27.832;2023-02-28T11:06:15;100156.88;;;8.46;100.00
9717;BME280;4897;43.570;27.832;2023-02-28T11:08:50;100165.66;;;8.62;100.00
9717;BME280;4897;43.570;27.832;2023-02-28T11:11:18;100161.44;;;8.58;100.00
9717;BME280;4897;43.570;27.832;2023-02-28T11:13:47;100150.00;;;8.42;100.00
9717;BME280;4897;43.570;27.832;2023-02-28T11:16:16;100155.34;;;8.42;100.00
9717;BME280;4897;43.570;27.832;2023-02-28T11:18:47;100121.56;;;8.13;100.00
9717;BME280;4897;43.570;27.832;2023-02-28T11:21:21;100155.22;;;8.30;100.00
9717;BME280;4897;43.570;27.832;2023-02-28T11:23:54;100125.81;;;8.31;100.00
9717;BME280;4897;43.570;27.832;2023-02-28T11:26:39;100147.84;;;8.63;100.00
9717;BME280;4897;43.570;27.832;2023-02-28T11:29:12;100126.63;;;8.61;100.00
9717;BME280;4897;43.570;27.832;2023-02-28T11:31:39;100132.88;;;8.60;100.00
9717;BME280;4897;43.570;27.832;2023-02-28T11:34:23;100126.69;;;8.46;100.00
9717;BME280;4897;43.570;27.832;2023-02-28T11:36:53;100131.00;;;8.62;100.00
9717;BME280;4897;43.570;27.832;2023-02-28T11:39:24;100128.41;;;8.89;100.00
9717;BME280;4897;43.570;27.832;2023-02-28T11:42:08;100131.09;;;8.89;100.00
9717;BME280;4897;43.570;27.832;2023-02-28T11:44:51;100116.13;;;9.01;100.00
9717;BME280;4897;43.570;27.832;2023-02-28T11:47:31;100080.72;;;8.56;100.00
9717;BME280;4897;43.570;27.832;2023-02-28T11:50:16;100108.06;;;8.74;100.00
9717;BME280;4897;43.570;27.832;2023-02-28T11:52:50;100096.53;;;8.73;100.00
9717;BME280;4897;43.570;27.832;2023-02-28T11:55:24;100117.88;;;8.59;100.00
9717;BME280;4897;43.570;27.832;2023-02-28T11:58:27;100113.63;;;8.41;100.00
9717;BME280;4897;43.570;27.832;2023-02-28T12:01:07;100117.47;;;8.65;100.00
9717;BME280;4897;43.570;27.832;2023-02-28T12:03:44;100111.50;;;8.76;100.00
9717;BME280;4897;43.570;27.832;2023-02-28T12:06:20;100078.72;;;8.60;100.00
9717;BME280;4897;43.570;27.832;2023-02-28T12:08:57;100090.22;;;8.60;100.00
9717;BME280;4897;43.570;27.832;2023-02-28T12:11:39;100097.47;;;8.44;100.00
9717;BME280;4897;43.570;27.832;2023-02-28T12:14:25;100076.22;;;7.99;100.00
9717;BME280;4897;43.570;27.832;2023-02-28T12:17:11;100103.47;;;8.18;100.00
9717;BME280;4897;43.570;27.832;2023-02-28T12:19:47;100111.47;;;8.18;100.00
9717;BME280;4897;43.570;27.832;2023-02-28T12:22:25;100114.69;;;8.09;100.00
9717;BME280;4897;43.570;27.832;2023-02-28T12:25:24;100119.31;;;8.05;100.00
9717;BME280;4897;43.570;27.832;2023-02-28T12:28:00;100119.78;;;7.98;100.00
9717;BME280;4897;43.570;27.832;2023-02-28T12:30:30;100112.91;;;7.80;100.00
9717;BME280;4897;43.570;27.832;2023-02-28T12:33:06;100100.88;;;7.73;100.00
9717;BME280;4897;43.570;27.832;2023-02-28T12:35:37;100119.91;;;7.96;100.00
9717;BME280;4897;43.570;27.832;2023-02-28T12:38:08;100124.81;;;7.88;100.00
9717;BME280;4897;43.570;27.832;2023-02-28T12:40:43;100117.28;;;7.95;100.00
9717;BME280;4897;43.570;27.832;2023-02-28T12:43:14;100126.25;;;7.94;100.00
9717;BME280;4897;43.570;27.832;2023-02-28T12:45:46;100128.16;;;7.76;100.00
9717;BME280;4897;43.570;27.832;2023-02-28T12:48:19;100100.81;;;7.59;100.00
9717;BME280;4897;43.570;27.832;2023-02-28T12:50:47;100134.09;;;7.81;100.00
9717;BME280;4897;43.570;27.832;2023-02-28T12:53:18;100135.06;;;7.65;100.00
9717;BME280;4897;43.570;27.832;2023-02-28T12:55:56;100124.78;;;7.59;100.00
9717;BME280;4897;43.570;27.832;2023-02-28T12:58:33;100139.56;;;7.49;100.00
9717;BME280;4897;43.570;27.832;2023-02-28T13:01:40;100112.19;;;7.47;100.00
9717;BME280;4897;43.570;27.832;2023-02-28T13:04:42;100139.28;;;7.69;100.00
9717;BME280;4897;43.570;27.832;2023-02-28T13:10:38;100133.28;;;7.65;100.00
9717;BME280;4897;43.570;27.832;2023-02-28T13:13:06;100141.41;;;7.78;100.00
9717;BME280;4897;43.570;27.832;2023-02-28T13:15:57;100141.53;;;7.61;100.00
9717;BME280;4897;43.570;27.832;2023-02-28T13:18:29;100139.72;;;7.46;100.00
9717;BME280;4897;43.570;27.832;2023-02-28T13:20:56;100130.13;;;7.28;100.00
9717;BME280;4897;43.570;27.832;2023-02-28T13:23:56;100112.25;;;7.14;100.00
9717;BME280;4897;43.570;27.832;2023-02-28T13:27:10;100130.97;;;7.12;100.00